Time;durP1;ratioP1;P1;durP2;ratioP2;P2;SDS_P1;SDS_P2;PMS_P1;PMS_P2;Temp;Humidity;BMP_temperature;BMP_pressure;BME280_temperature;BME280_humidity;BME280_pressure;Samples;Min_cycle;Max_cycle;Signal;HPM_P1;HPM_P2
2022/12/09 00:01:13;;;;;;;25.33;16.97;;;6.60;74.40;;;;;;5098034;28;20015;-62
2022/12/09 00:03:39;;;;;;;23.47;15.33;;;6.60;74.20;;;;;;5120021;28;20032;-62
2022/12/09 00:06:09;;;;;;;24.57;15.80;;;6.60;74.20;;;;;;5113994;28;20719;-62
2022/12/09 00:08:35;;;;;;;22.77;13.83;;;6.60;74.00;;;;;;5113012;28;20360;-62
2022/12/09 00:11:01;;;;;;;23.37;14.90;;;6.60;74.00;;;;;;5114139;28;20035;-62
2022/12/09 00:13:27;;;;;;;20.33;13.53;;;6.60;73.90;;;;;;5094428;28;20169;-62
2022/12/09 00:15:52;;;;;;;24.67;14.57;;;6.60;73.80;;;;;;5124333;28;20460;-62
2022/12/09 00:18:18;;;;;;;20.90;13.73;;;6.60;73.80;;;;;;5112699;28;20089;-62
2022/12/09 00:20:44;;;;;;;24.63;15.70;;;6.60;73.80;;;;;;5113644;28;20028;-61
2022/12/09 00:23:09;;;;;;;23.83;15.03;;;6.60;73.60;;;;;;5112524;28;20024;-62
2022/12/09 00:25:35;;;;;;;26.87;16.67;;;6.60;73.50;;;;;;5101258;27;20055;-62
2022/12/09 00:28:00;;;;;;;24.63;15.77;;;6.60;73.50;;;;;;5098151;28;20028;-62
2022/12/09 00:30:26;;;;;;;24.93;15.43;;;6.60;73.40;;;;;;5117365;28;20028;-62
2022/12/09 00:32:52;;;;;;;24.00;15.03;;;6.60;73.40;;;;;;5118480;27;20103;-62
2022/12/09 00:35:17;;;;;;;24.23;15.47;;;6.60;73.30;;;;;;5071626;28;20043;-62
2022/12/09 00:37:43;;;;;;;25.67;17.23;;;6.60;73.30;;;;;;5118496;27;20051;-61
2022/12/09 00:40:09;;;;;;;24.27;15.77;;;6.70;73.30;;;;;;5098322;28;20497;-62
2022/12/09 00:42:35;;;;;;;26.43;17.03;;;6.60;73.20;;;;;;5105285;28;20019;-62
2022/12/09 00:45:01;;;;;;;24.63;15.63;;;6.60;73.20;;;;;;5098910;28;20024;-62
2022/12/09 00:47:26;;;;;;;23.03;14.73;;;6.60;73.20;;;;;;5115717;27;20019;-62
2022/12/09 00:49:53;;;;;;;25.47;15.90;;;6.70;73.20;;;;;;5081520;28;20035;-62
2022/12/09 00:52:19;;;;;;;26.93;16.00;;;6.70;73.20;;;;;;5087823;27;20023;-62
2022/12/09 00:54:44;;;;;;;25.57;16.07;;;6.60;73.10;;;;;;5110960;27;20051;-62
2022/12/09 00:57:10;;;;;;;25.40;15.90;;;6.70;73.10;;;;;;5100637;27;20120;-62
2022/12/09 00:59:35;;;;;;;25.00;15.97;;;6.70;73.00;;;;;;5127508;27;20027;-62
2022/12/09 01:02:01;;;;;;;23.67;14.57;;;6.70;73.00;;;;;;5105321;27;20425;-62
2022/12/09 01:04:27;;;;;;;24.93;16.00;;;6.70;73.10;;;;;;5095546;27;20023;-62
2022/12/09 01:06:52;;;;;;;25.33;16.23;;;6.60;73.00;;;;;;5122643;27;20089;-62
2022/12/09 01:09:18;;;;;;;29.73;16.73;;;6.60;73.10;;;;;;5090866;28;20031;-62
2022/12/09 01:11:44;;;;;;;27.57;17.07;;;6.60;73.10;;;;;;5119938;27;20123;-62
2022/12/09 01:14:11;;;;;;;27.67;17.83;;;6.60;73.20;;;;;;5088672;28;20416;-62
2022/12/09 01:16:37;;;;;;;27.67;17.50;;;6.60;73.20;;;;;;5098276;28;20047;-62
2022/12/09 01:19:06;;;;;;;28.63;19.70;;;6.60;73.30;;;;;;5096972;28;20031;-62
2022/12/09 01:21:32;;;;;;;28.33;18.17;;;6.60;73.40;;;;;;5103295;27;20042;-62
2022/12/09 01:23:58;;;;;;;30.87;18.73;;;6.60;73.50;;;;;;5126942;27;20035;-62
2022/12/09 01:26:24;;;;;;;27.80;18.87;;;6.60;73.60;;;;;;5078606;28;20066;-62
2022/12/09 01:28:51;;;;;;;32.03;20.83;;;6.60;73.70;;;;;;5089647;28;20023;-62
2022/12/09 01:31:21;;;;;;;30.77;19.50;;;6.60;73.70;;;;;;5099953;27;20103;-62
2022/12/09 01:33:47;;;;;;;31.43;20.03;;;6.60;73.80;;;;;;5122077;27;20027;-61
2022/12/09 01:36:16;;;;;;;29.10;19.83;;;6.50;73.80;;;;;;5091063;27;20027;-62
2022/12/09 01:38:42;;;;;;;31.83;20.50;;;6.60;73.90;;;;;;5093424;27;20031;-62
2022/12/09 01:41:08;;;;;;;31.73;18.73;;;6.60;73.90;;;;;;5082223;27;20019;-62
2022/12/09 01:43:33;;;;;;;33.10;20.20;;;6.60;73.80;;;;;;5099046;28;20091;-62
2022/12/09 01:45:59;;;;;;;32.20;20.57;;;6.60;73.90;;;;;;5115994;28;20147;-62
2022/12/09 01:48:35;;;;;;;32.60;20.20;;;6.50;73.90;;;;;;5097743;28;20405;-62
2022/12/09 01:51:15;;;;;;;33.30;20.73;;;6.50;74.60;;;;;;5100357;27;20436;-62
2022/12/09 01:53:43;;;;;;;33.50;20.30;;;6.50;73.90;;;;;;5101095;28;20019;-62
2022/12/09 01:56:21;;;;;;;30.67;19.57;;;6.50;73.90;;;;;;5097610;28;20030;-62
2022/12/09 01:58:48;;;;;;;30.07;19.23;;;6.50;74.00;;;;;;5097583;28;20024;-62
2022/12/09 02:01:16;;;;;;;31.17;19.87;;;6.50;74.00;;;;;;5097777;27;20045;-61
2022/12/09 02:03:42;;;;;;;32.30;19.93;;;6.50;74.70;;;;;;5084820;28;20031;-61
2022/12/09 02:06:08;;;;;;;35.13;20.30;;;6.50;74.00;;;;;;5106034;28;20440;-61
2022/12/09 02:08:33;;;;;;;32.67;19.93;;;6.50;74.10;;;;;;5115170;27;20130;-62
2022/12/09 02:11:24;;;;;;;30.17;19.83;;;6.50;74.10;;;;;;5094742;28;20412;-62
2022/12/09 02:13:58;;;;;;;30.33;18.97;;;6.40;74.10;;;;;;5096855;28;20028;-61
2022/12/09 02:16:30;;;;;;;29.73;19.80;;;6.40;74.10;;;;;;5096012;28;20031;-62
2022/12/09 02:19:03;;;;;;;;;;;6.40;74.00;;;;;;5114751;28;20027;-62
2022/12/09 02:21:36;;;;;;;29.30;18.77;;;6.40;74.10;;;;;;5087008;27;19908;-62
2022/12/09 02:24:14;;;;;;;31.17;17.47;;;6.40;74.10;;;;;;5100545;28;20027;-61
2022/12/09 02:26:50;;;;;;;31.97;18.03;;;6.30;74.10;;;;;;5102571;27;20019;-62
2022/12/09 02:29:53;;;;;;;31.70;19.70;;;6.40;74.20;;;;;;5092834;28;20024;-62
2022/12/09 02:32:37;;;;;;;26.90;16.70;;;6.40;74.10;;;;;;5115232;27;20038;-61
2022/12/09 02:35:31;;;;;;;30.73;19.37;;;6.30;74.00;;;;;;5094612;27;20039;-61
2022/12/09 02:38:11;;;;;;;29.33;18.40;;;6.40;74.00;;;;;;5093918;27;20020;-62
2022/12/09 02:40:40;;;;;;;30.10;18.53;;;6.30;74.70;;;;;;5086561;27;20381;-62
2022/12/09 02:43:08;;;;;;;28.07;17.77;;;6.30;74.10;;;;;;5101162;28;20024;-62
2022/12/09 02:45:35;;;;;;;36.33;20.77;;;6.30;74.20;;;;;;5080095;27;20139;-62
2022/12/09 02:48:03;;;;;;;30.63;19.00;;;6.20;74.20;;;;;;5094219;28;20047;-62
2022/12/09 02:50:34;;;;;;;31.67;18.50;;;6.30;74.30;;;;;;5118683;27;20104;-64
2022/12/09 02:53:07;;;;;;;29.70;17.97;;;6.30;74.20;;;;;;5095982;28;20065;-62
2022/12/09 02:55:34;;;;;;;30.70;17.50;;;6.20;74.20;;;;;;5097008;28;20118;-62
2022/12/09 02:58:01;;;;;;;28.70;18.00;;;6.20;74.20;;;;;;5102564;27;20106;-63
2022/12/09 03:00:29;;;;;;;31.90;18.97;;;6.20;74.20;;;;;;5114997;28;20027;-62
2022/12/09 03:02:59;;;;;;;29.43;18.07;;;6.20;74.20;;;;;;5114311;27;20098;-62
2022/12/09 03:05:35;;;;;;;28.23;17.63;;;6.20;74.20;;;;;;5095937;28;20046;-62
2022/12/09 03:08:04;;;;;;;30.83;18.70;;;6.20;74.20;;;;;;5101998;27;20035;-61
2022/12/09 03:10:55;;;;;;;29.47;18.73;;;6.20;74.10;;;;;;5097927;28;20059;-63
2022/12/09 03:13:32;;;;;;;26.13;17.20;;;6.20;74.10;;;;;;5096146;28;20031;-62
2022/12/09 03:16:40;;;;;;;28.33;17.00;;;6.20;74.10;;;;;;5096941;28;20039;-62
2022/12/09 03:19:06;;;;;;;28.37;16.97;;;6.20;74.10;;;;;;4994866;28;20077;-62
2022/12/09 03:21:36;;;;;;;29.30;18.67;;;6.20;74.20;;;;;;5013625;28;20374;-61
2022/12/09 03:24:06;;;;;;;27.70;17.33;;;6.20;74.20;;;;;;4986901;28;20095;-61
2022/12/09 03:26:35;;;;;;;30.00;17.63;;;6.20;74.10;;;;;;5013905;28;20517;-61
2022/12/09 03:29:05;;;;;;;29.37;16.93;;;6.20;74.10;;;;;;5004213;28;20052;-62
2022/12/09 03:31:34;;;;;;;27.30;16.73;;;6.20;74.00;;;;;;5022442;28;20048;-62
2022/12/09 03:34:03;;;;;;;27.20;16.60;;;6.20;73.90;;;;;;5014958;28;20120;-61
2022/12/09 03:36:35;;;;;;;28.47;18.00;;;6.20;73.90;;;;;;4996303;28;20065;-62
2022/12/09 03:39:06;;;;;;;29.00;16.87;;;6.20;73.80;;;;;;5002631;28;20108;-62
2022/12/09 03:41:33;;;;;;;27.73;16.77;;;6.20;73.80;;;;;;5003988;28;20121;-62
2022/12/09 03:44:08;;;;;;;27.53;16.50;;;6.20;73.80;;;;;;4995487;28;20045;-62
2022/12/09 03:46:33;;;;;;;27.97;16.33;;;6.20;73.70;;;;;;5011799;28;20042;-62
2022/12/09 03:48:59;;;;;;;26.33;16.63;;;6.20;73.80;;;;;;5028857;28;20031;-62
2022/12/09 03:51:39;;;;;;;24.70;14.10;;;6.20;73.70;;;;;;5114113;28;20432;-62
2022/12/09 03:54:14;;;;;;;24.90;14.83;;;6.20;73.70;;;;;;5117823;28;20444;-61
2022/12/09 03:56:43;;;;;;;26.53;15.13;;;6.20;73.70;;;;;;5109939;28;20043;-62
2022/12/09 03:59:12;;;;;;;24.43;14.33;;;6.10;73.60;;;;;;5109040;27;20356;-62
2022/12/09 04:01:40;;;;;;;25.30;15.07;;;6.10;73.50;;;;;;5106356;28;20114;-62
2022/12/09 04:04:07;;;;;;;25.83;15.77;;;6.10;73.50;;;;;;5097589;28;20019;-62
2022/12/09 04:06:33;;;;;;;23.77;14.63;;;6.10;73.50;;;;;;5084381;28;20042;-62
2022/12/09 04:08:59;;;;;;;25.97;15.27;;;6.10;73.40;;;;;;5099824;28;20464;-62
2022/12/09 04:11:24;;;;;;;24.17;15.03;;;6.10;73.50;;;;;;5126843;27;20031;-62
2022/12/09 04:13:50;;;;;;;27.83;15.87;;;6.10;73.50;;;;;;5122399;27;20063;-61
2022/12/09 04:16:16;;;;;;;26.07;14.77;;;6.10;73.60;;;;;;5120167;27;20043;-62
2022/12/09 04:18:41;;;;;;;29.13;14.07;;;6.10;73.70;;;;;;5099904;28;20036;-62
2022/12/09 04:21:09;;;;;;;24.50;14.27;;;6.10;73.70;;;;;;5099427;28;20106;-62
2022/12/09 04:23:35;;;;;;;24.17;13.97;;;6.10;73.60;;;;;;5115902;28;20088;-62
2022/12/09 04:26:01;;;;;;;22.87;14.30;;;6.10;73.60;;;;;;5104509;28;20111;-62
2022/12/09 04:28:26;;;;;;;22.70;13.47;;;6.10;73.60;;;;;;5117553;28;20348;-62
2022/12/09 04:30:52;;;;;;;21.93;14.30;;;6.10;73.50;;;;;;5115501;27;20027;-62
2022/12/09 04:33:18;;;;;;;24.43;14.03;;;6.00;73.40;;;;;;5117991;27;20050;-62
2022/12/09 04:35:43;;;;;;;23.03;13.87;;;6.10;73.40;;;;;;5124719;27;20034;-62
2022/12/09 04:38:09;;;;;;;24.77;13.97;;;6.10;73.30;;;;;;5117492;28;20027;-62
2022/12/09 04:40:35;;;;;;;22.60;13.80;;;6.10;73.30;;;;;;5122794;27;20030;-62
2022/12/09 04:43:00;;;;;;;22.77;13.13;;;6.10;73.20;;;;;;5111949;28;20031;-62
2022/12/09 04:45:26;;;;;;;25.53;14.13;;;6.00;73.10;;;;;;5126505;27;20451;-64
2022/12/09 04:47:52;;;;;;;24.50;14.10;;;6.00;73.10;;;;;;5129555;27;20023;-61
2022/12/09 04:50:18;;;;;;;22.97;13.70;;;6.10;73.10;;;;;;5117386;27;20030;-62
2022/12/09 04:52:43;;;;;;;22.90;13.63;;;6.00;73.10;;;;;;5115517;28;20122;-62
2022/12/09 04:55:12;;;;;;;22.63;13.50;;;6.00;73.10;;;;;;5108716;27;20114;-61
2022/12/09 04:57:37;;;;;;;20.63;12.30;;;6.00;73.10;;;;;;5136403;27;20110;-61
2022/12/09 05:00:05;;;;;;;20.13;11.43;;;6.00;73.00;;;;;;5115973;27;20127;-61
2022/12/09 05:02:30;;;;;;;18.83;10.90;;;6.00;72.90;;;;;;5117416;27;20374;-61
2022/12/09 05:04:56;;;;;;;19.40;11.10;;;6.00;72.90;;;;;;5098830;27;20118;-62
2022/12/09 05:07:22;;;;;;;20.00;11.97;;;6.00;72.90;;;;;;5118319;27;20023;-62
2022/12/09 05:09:48;;;;;;;19.63;11.37;;;6.00;72.70;;;;;;5099491;28;20038;-62
2022/12/09 05:12:13;;;;;;;22.97;11.63;;;6.00;73.30;;;;;;5123691;27;20124;-61
2022/12/09 05:14:39;;;;;;;21.57;11.80;;;6.00;72.60;;;;;;5115923;28;20177;-61
2022/12/09 05:17:06;;;;;;;22.33;12.60;;;6.00;72.60;;;;;;5130599;27;20356;-62
2022/12/09 05:19:31;;;;;;;20.23;11.50;;;6.00;72.60;;;;;;5124151;27;20032;-62
2022/12/09 05:21:57;;;;;;;23.13;12.17;;;6.00;72.60;;;;;;5102025;28;20019;-61
2022/12/09 05:24:23;;;;;;;23.33;11.20;;;6.00;72.50;;;;;;5114798;28;20028;-62
2022/12/09 05:26:48;;;;;;;20.73;10.43;;;6.00;72.50;;;;;;5116477;28;20352;-61
2022/12/09 05:29:14;;;;;;;19.43;11.87;;;6.00;72.40;;;;;;5115515;28;20159;-62
2022/12/09 05:31:40;;;;;;;19.50;11.17;;;6.00;72.40;;;;;;5121588;27;20529;-62
2022/12/09 05:34:06;;;;;;;20.10;11.13;;;6.00;72.40;;;;;;5122264;27;20024;-62
2022/12/09 05:36:31;;;;;;;18.87;11.87;;;6.00;72.40;;;;;;5098336;28;20213;-62
2022/12/09 05:38:57;;;;;;;20.27;11.40;;;6.00;72.30;;;;;;5097179;27;20116;-62
2022/12/09 05:41:23;;;;;;;21.33;11.90;;;6.00;72.30;;;;;;5115044;27;20015;-61
2022/12/09 05:43:50;;;;;;;21.87;12.67;;;6.00;72.20;;;;;;5120284;27;20024;-61
2022/12/09 05:46:16;;;;;;;21.00;11.80;;;6.10;72.30;;;;;;5115128;28;20020;-62
2022/12/09 05:48:42;;;;;;;21.23;11.10;;;6.00;72.20;;;;;;5116025;28;20068;-62
2022/12/09 05:51:12;;;;;;;17.07;10.70;;;6.00;72.10;;;;;;5096083;28;20464;-62
2022/12/09 05:53:37;;;;;;;23.23;12.00;;;6.00;72.10;;;;;;5115178;28;20110;-62
2022/12/09 05:56:03;;;;;;;23.03;11.90;;;6.00;72.10;;;;;;5097351;28;20554;-62
2022/12/09 05:58:29;;;;;;;17.87;10.57;;;6.00;72.10;;;;;;5114751;28;20095;-62
2022/12/09 06:00:56;;;;;;;19.40;11.03;;;6.00;72.10;;;;;;5114387;28;20055;-62
2022/12/09 06:03:22;;;;;;;18.00;11.27;;;6.00;72.10;;;;;;5098807;28;20020;-62
2022/12/09 06:05:48;;;;;;;19.07;12.03;;;6.00;71.90;;;;;;5115928;27;20020;-62
2022/12/09 06:08:14;;;;;;;22.67;12.03;;;6.00;71.90;;;;;;5128180;27;20472;-62
2022/12/09 06:10:40;;;;;;;21.37;11.97;;;6.00;71.90;;;;;;5115989;27;20024;-61
2022/12/09 06:13:07;;;;;;;20.03;12.17;;;6.00;72.00;;;;;;5126858;27;20039;-62
2022/12/09 06:15:33;;;;;;;18.97;11.10;;;5.90;72.10;;;;;;5113743;27;20061;-62
2022/12/09 06:18:00;;;;;;;22.13;12.53;;;5.90;72.20;;;;;;5135905;27;20043;-62
2022/12/09 06:20:25;;;;;;;21.97;12.30;;;5.80;72.30;;;;;;5104851;27;20024;-62
2022/12/09 06:22:51;;;;;;;18.27;11.30;;;5.80;72.30;;;;;;5107230;28;20045;-62
2022/12/09 06:25:16;;;;;;;21.03;10.93;;;5.80;72.40;;;;;;5120794;27;20049;-62
2022/12/09 06:27:42;;;;;;;19.33;10.97;;;5.80;72.50;;;;;;5099485;28;20054;-61
2022/12/09 06:30:08;;;;;;;20.40;11.43;;;5.80;72.60;;;;;;5113389;28;20440;-61
2022/12/09 06:32:34;;;;;;;21.87;12.07;;;5.80;72.70;;;;;;5114094;28;20065;-62
2022/12/09 06:35:00;;;;;;;21.97;13.37;;;5.80;72.70;;;;;;5114288;28;20027;-62
2022/12/09 06:37:25;;;;;;;19.20;11.77;;;5.70;72.80;;;;;;5111044;28;20035;-62
2022/12/09 06:39:51;;;;;;;20.67;10.90;;;5.70;72.90;;;;;;5108836;28;20024;-61
2022/12/09 06:42:17;;;;;;;20.37;10.73;;;5.60;72.90;;;;;;5120662;27;20055;-62
2022/12/09 06:44:43;;;;;;;20.03;12.30;;;5.60;73.00;;;;;;5081381;28;20065;-62
2022/12/09 06:47:09;;;;;;;21.73;10.87;;;5.60;73.00;;;;;;5078536;28;20047;-61
2022/12/09 06:49:34;;;;;;;18.90;9.93;;;5.60;73.00;;;;;;5113248;28;20126;-60
2022/12/09 06:52:00;;;;;;;19.47;10.80;;;5.50;73.00;;;;;;5114084;28;20081;-61
2022/12/09 06:54:26;;;;;;;21.20;12.10;;;5.50;73.00;;;;;;5102447;27;20035;-61
2022/12/09 06:56:51;;;;;;;20.13;11.93;;;5.50;73.10;;;;;;5098018;27;20535;-61
2022/12/09 06:59:17;;;;;;;21.63;11.60;;;5.40;73.00;;;;;;5097418;28;20165;-61
2022/12/09 07:01:44;;;;;;;20.57;12.33;;;5.40;73.10;;;;;;5084673;28;20073;-62
2022/12/09 07:04:12;;;;;;;20.33;11.60;;;5.40;73.10;;;;;;5126642;27;20480;-61
2022/12/09 07:06:40;;;;;;;19.57;11.23;;;5.30;73.10;;;;;;5115752;27;20042;-62
2022/12/09 07:09:12;;;;;;;19.97;11.87;;;5.30;73.20;;;;;;5096861;28;20437;-62
2022/12/09 07:11:41;;;;;;;20.73;11.67;;;5.30;73.20;;;;;;5094448;28;20463;-63
2022/12/09 07:14:07;;;;;;;21.03;11.60;;;5.20;73.20;;;;;;5107849;28;20031;-61
2022/12/09 07:16:34;;;;;;;21.77;11.40;;;5.20;73.20;;;;;;5126351;27;20452;-62
2022/12/09 07:19:00;;;;;;;17.63;10.23;;;5.20;73.30;;;;;;5096754;28;20032;-63
2022/12/09 07:21:27;;;;;;;20.93;11.13;;;5.10;73.30;;;;;;5079759;28;20107;-62
2022/12/09 07:23:53;;;;;;;21.33;11.83;;;5.10;73.40;;;;;;5094248;28;20020;-62
2022/12/09 07:26:19;;;;;;;21.07;12.43;;;5.10;73.40;;;;;;5095015;28;20448;-62
2022/12/09 07:28:46;;;;;;;19.50;11.13;;;5.10;73.50;;;;;;5120433;28;20110;-62
2022/12/09 07:31:23;;;;;;;21.93;12.00;;;5.00;73.50;;;;;;5106676;28;20032;-66
2022/12/09 07:33:49;;;;;;;21.07;11.30;;;5.00;73.50;;;;;;5100820;27;20341;-62
2022/12/09 07:36:16;;;;;;;20.83;11.67;;;5.00;73.50;;;;;;5102003;27;20382;-62
2022/12/09 07:38:41;;;;;;;24.33;12.77;;;4.90;73.50;;;;;;5112847;28;20096;-62
2022/12/09 07:41:16;;;;;;;21.43;11.93;;;4.90;73.50;;;;;;5118285;28;20023;-62
2022/12/09 07:43:45;;;;;;;20.73;11.87;;;4.90;73.60;;;;;;5103402;27;20039;-62
2022/12/09 07:46:12;;;;;;;24.33;12.50;;;4.90;73.60;;;;;;5107272;28;20724;-62
2022/12/09 07:48:38;;;;;;;21.93;12.67;;;4.80;73.60;;;;;;5117789;27;20038;-63
2022/12/09 07:51:05;;;;;;;22.13;12.77;;;4.80;73.60;;;;;;5099701;28;20519;-63
2022/12/09 07:53:32;;;;;;;21.60;11.73;;;4.80;73.70;;;;;;5099288;28;20024;-65
2022/12/09 07:56:03;;;;;;;86.87;19.43;;;4.80;73.70;;;;;;5099211;27;20028;-62
2022/12/09 07:58:29;;;;;;;51.80;14.65;;;4.80;73.70;;;;;;5096161;27;20019;-63
2022/12/09 08:00:55;;;;;;;28.00;14.53;;;4.80;73.70;;;;;;5118063;28;20037;-64
2022/12/09 08:03:21;;;;;;;24.90;13.17;;;4.90;73.70;;;;;;5088407;28;20016;-63
2022/12/09 08:05:50;;;;;;;21.57;12.43;;;4.90;73.80;;;;;;5099871;28;20367;-62
2022/12/09 08:08:16;;;;;;;22.73;12.30;;;4.90;73.80;;;;;;5098254;28;20095;-61
2022/12/09 08:10:42;;;;;;;23.47;13.17;;;4.90;73.80;;;;;;5135633;27;20363;-62
2022/12/09 08:13:08;;;;;;;23.23;13.03;;;4.90;73.90;;;;;;5103438;28;20038;-62
2022/12/09 08:15:34;;;;;;;21.97;12.03;;;4.90;73.90;;;;;;5112987;27;20456;-65
2022/12/09 08:18:00;;;;;;;22.93;12.67;;;4.90;73.90;;;;;;5080649;28;20044;-64
2022/12/09 08:20:26;;;;;;;22.67;12.67;;;5.00;74.00;;;;;;5096315;28;20021;-63
2022/12/09 08:22:52;;;;;;;24.43;14.17;;;5.00;74.10;;;;;;5100703;28;20019;-62
2022/12/09 08:25:17;;;;;;;23.03;13.37;;;5.00;74.20;;;;;;5100532;28;20127;-63
2022/12/09 08:27:43;;;;;;;21.83;12.17;;;5.00;74.20;;;;;;5095841;28;20031;-62
2022/12/09 08:30:09;;;;;;;22.73;13.00;;;5.10;74.30;;;;;;5096118;28;20040;-62
2022/12/09 08:32:35;;;;;;;27.73;14.90;;;5.10;74.30;;;;;;5095728;28;20028;-62
2022/12/09 08:35:00;;;;;;;28.87;15.50;;;5.20;74.30;;;;;;5096156;28;20136;-62
2022/12/09 08:37:26;;;;;;;33.43;17.73;;;5.20;74.30;;;;;;5077348;28;20036;-63
2022/12/09 08:39:52;;;;;;;30.53;17.03;;;5.30;74.30;;;;;;5110861;28;20028;-62
2022/12/09 08:42:17;;;;;;;33.50;17.33;;;5.30;74.30;;;;;;5099094;28;20136;-62
2022/12/09 08:44:43;;;;;;;33.27;18.63;;;5.30;74.30;;;;;;5090542;28;20430;-63
2022/12/09 08:47:09;;;;;;;35.57;18.93;;;5.30;74.30;;;;;;5093040;28;20210;-63
2022/12/09 08:49:35;;;;;;;35.23;18.23;;;5.30;74.30;;;;;;5079035;28;20020;-62
2022/12/09 08:52:00;;;;;;;36.23;18.50;;;5.40;74.30;;;;;;5092656;28;20059;-62
2022/12/09 08:54:26;;;;;;;29.13;16.33;;;5.40;74.30;;;;;;5095940;28;20031;-65
2022/12/09 08:56:56;;;;;;;35.10;19.50;;;5.40;74.30;;;;;;5098353;28;20031;-62
2022/12/09 08:59:22;;;;;;;31.27;17.67;;;5.40;74.30;;;;;;5096593;28;20130;-62
2022/12/09 09:01:48;;;;;;;33.37;19.33;;;5.40;74.40;;;;;;5093985;28;20035;-62
2022/12/09 09:04:17;;;;;;;34.17;18.17;;;5.40;74.50;;;;;;5097687;28;20028;-62
2022/12/09 09:06:47;;;;;;;33.30;18.20;;;5.50;74.50;;;;;;5116034;28;20027;-62
2022/12/09 09:09:13;;;;;;;34.23;18.03;;;5.50;74.50;;;;;;5099669;28;20020;-62
2022/12/09 09:11:39;;;;;;;38.53;18.17;;;5.50;74.40;;;;;;5115933;28;20043;-62
2022/12/09 09:14:07;;;;;;;33.47;17.63;;;5.60;74.40;;;;;;5116796;28;20176;-61
2022/12/09 09:16:34;;;;;;;31.50;17.63;;;5.60;74.40;;;;;;5117885;27;20024;-62
2022/12/09 09:19:02;;;;;;;31.40;17.07;;;5.60;74.30;;;;;;5114714;28;20024;-61
2022/12/09 09:21:28;;;;;;;33.10;17.00;;;5.60;74.30;;;;;;5116753;28;20032;-62
2022/12/09 09:23:54;;;;;;;27.40;15.33;;;5.60;74.30;;;;;;5098933;28;20183;-62
2022/12/09 09:26:22;;;;;;;24.17;13.97;;;5.60;74.10;;;;;;5081543;28;20035;-62
2022/12/09 09:28:48;;;;;;;25.83;12.37;;;5.60;73.90;;;;;;5121484;27;20092;-62
2022/12/09 09:31:17;;;;;;;24.67;13.73;;;5.70;73.90;;;;;;5118902;27;20041;-62
2022/12/09 09:33:43;;;;;;;24.07;13.40;;;5.70;73.70;;;;;;5110290;28;20034;-62
2022/12/09 09:36:13;;;;;;;25.90;13.73;;;5.70;73.60;;;;;;5108346;27;20023;-63
2022/12/09 09:38:39;;;;;;;25.03;13.67;;;5.70;73.60;;;;;;5130358;27;20397;-62
2022/12/09 09:41:34;;;;;;;23.07;12.03;;;5.60;73.50;;;;;;5102054;28;20085;-63
2022/12/09 09:44:00;;;;;;;19.77;10.90;;;5.70;73.50;;;;;;5096475;28;20040;-62
2022/12/09 09:46:42;;;;;;;25.17;11.57;;;5.70;73.40;;;;;;5114898;28;20436;-62
2022/12/09 09:49:18;;;;;;;21.83;12.33;;;5.70;73.20;;;;;;5094649;28;20405;-61
2022/12/09 09:51:44;;;;;;;20.70;11.67;;;5.70;73.00;;;;;;5102246;27;20074;-62
2022/12/09 09:54:13;;;;;;;18.57;10.30;;;5.60;73.00;;;;;;5122381;27;20039;-63
2022/12/09 09:57:07;;;;;;;19.03;10.33;;;5.60;73.00;;;;;;5114800;28;20036;-62
2022/12/09 09:59:42;;;;;;;20.97;11.27;;;5.60;73.00;;;;;;5079339;27;20084;-62
2022/12/09 10:02:10;;;;;;;20.17;11.73;;;5.60;72.90;;;;;;5078185;27;20312;-65
2022/12/09 10:05:05;;;;;;;22.87;11.10;;;5.60;72.80;;;;;;5105102;27;20030;-61
2022/12/09 10:07:47;;;;;;;21.87;12.33;;;5.70;72.70;;;;;;5061733;28;20028;-62
2022/12/09 10:10:13;;;;;;;;;;;5.70;72.70;;;;;;5105164;28;20141;-62
2022/12/09 10:12:58;;;;;;;21.20;10.93;;;5.70;72.70;;;;;;5110905;27;20002;-61
2022/12/09 10:15:29;;;;;;;22.97;11.87;;;5.70;72.60;;;;;;5104174;28;20464;-62
2022/12/09 10:18:24;;;;;;;21.98;12.65;;;5.70;72.60;;;;;;5096041;28;20047;-61
2022/12/09 10:20:51;;;;;;;22.37;11.67;;;5.70;72.60;;;;;;5114633;27;20126;-61
2022/12/09 10:23:17;;;;;;;25.67;12.33;;;5.70;72.50;;;;;;5120812;27;20356;-62
2022/12/09 10:25:56;;;;;;;23.50;12.50;;;5.70;72.40;;;;;;5101156;28;20039;-61
2022/12/09 10:28:33;;;;;;;20.33;12.20;;;5.80;72.30;;;;;;5133857;27;20042;-61
2022/12/09 10:30:59;;;;;;;22.10;12.07;;;5.80;72.90;;;;;;5100156;28;20043;-63
2022/12/09 10:33:32;;;;;;;26.77;13.40;;;5.80;72.10;;;;;;5117277;27;20027;-62
2022/12/09 10:35:57;;;;;;;25.10;13.23;;;5.90;72.10;;;;;;5103592;28;20031;-61
2022/12/09 10:38:25;;;;;;;23.77;13.17;;;5.90;72.10;;;;;;5098308;27;20034;-61
2022/12/09 10:41:14;;;;;;;20.43;11.37;;;5.90;72.00;;;;;;5093118;28;20035;-61
2022/12/09 10:43:41;;;;;;;22.13;12.03;;;5.90;71.70;;;;;;5098148;28;20023;-62
2022/12/09 10:46:16;;;;;;;22.37;13.00;;;5.90;71.70;;;;;;5079538;28;20024;-61
2022/12/09 10:48:45;;;;;;;23.87;12.23;;;5.90;71.60;;;;;;5121155;27;20031;-62
2022/12/09 10:51:17;;;;;;;21.33;12.07;;;6.00;71.40;;;;;;5122910;27;20475;-60
2022/12/09 10:53:53;;;;;;;24.13;12.45;;;6.00;71.30;;;;;;5103118;27;20051;-61
2022/12/09 10:56:23;;;;;;;23.13;13.10;;;6.10;71.10;;;;;;5112436;27;20023;-62
2022/12/09 10:59:07;;;;;;;21.77;12.00;;;6.10;71.00;;;;;;5112968;28;20084;-61
2022/12/09 11:01:51;;;;;;;21.50;12.23;;;6.10;71.00;;;;;;5096233;28;20050;-61
2022/12/09 11:04:26;;;;;;;20.43;10.90;;;6.10;70.80;;;;;;5106556;28;20356;-60
2022/12/09 11:06:56;;;;;;;24.00;13.33;;;6.20;70.90;;;;;;5112968;28;20099;-62
2022/12/09 11:09:28;;;;;;;24.70;12.43;;;6.20;70.70;;;;;;5103205;28;20034;-62
2022/12/09 11:11:54;;;;;;;23.00;12.60;;;6.30;70.50;;;;;;5102201;28;20042;-62
2022/12/09 11:14:27;;;;;;;24.70;12.57;;;6.40;70.50;;;;;;5108036;28;20028;-62
2022/12/09 11:17:17;;;;;;;23.23;13.03;;;6.40;70.30;;;;;;5105103;28;20036;-63
2022/12/09 11:19:55;;;;;;;23.33;12.30;;;6.40;70.10;;;;;;5094990;28;20073;-62
2022/12/09 11:22:39;;;;;;;23.03;12.20;;;6.40;70.00;;;;;;5115165;28;20106;-63
2022/12/09 11:25:11;;;;;;;20.30;11.20;;;6.40;70.00;;;;;;5111515;28;20119;-62
2022/12/09 11:27:46;;;;;;;25.93;12.30;;;6.40;69.90;;;;;;5107395;28;20035;-62
2022/12/09 11:30:24;;;;;;;23.07;13.03;;;6.40;69.80;;;;;;5099498;28;20445;-64
2022/12/09 11:33:15;;;;;;;22.07;11.60;;;6.40;69.80;;;;;;5104413;28;20036;-62
2022/12/09 11:35:43;;;;;;;23.23;11.50;;;6.40;69.80;;;;;;5104416;28;20028;-62
2022/12/09 11:38:12;;;;;;;19.77;11.10;;;6.30;69.80;;;;;;5106743;28;20337;-63
2022/12/09 11:40:38;;;;;;;22.43;11.87;;;6.30;69.80;;;;;;5112171;28;20341;-62
2022/12/09 11:43:04;;;;;;;19.87;11.50;;;6.30;69.80;;;;;;5111694;28;20042;-62
2022/12/09 11:45:35;;;;;;;23.63;13.17;;;6.30;69.80;;;;;;5107757;28;20024;-62
2022/12/09 11:48:28;;;;;;;23.17;13.45;;;6.30;69.80;;;;;;5106193;28;20088;-63
2022/12/09 11:50:55;;;;;;;22.10;11.83;;;6.20;69.80;;;;;;5097381;28;20051;-63
2022/12/09 11:53:30;;;;;;;20.87;11.40;;;6.20;69.90;;;;;;5111464;28;20063;-62
2022/12/09 11:56:16;;;;;;;22.30;12.20;;;6.20;69.90;;;;;;5100629;28;20057;-62
2022/12/09 11:59:00;;;;;;;22.57;13.20;;;6.20;69.80;;;;;;5110838;28;20104;-62
2022/12/09 12:01:51;;;;;;;21.80;11.83;;;6.30;69.70;;;;;;5102860;28;20032;-63
2022/12/09 12:04:35;;;;;;;28.93;13.30;;;6.30;69.70;;;;;;5105497;28;20024;-62
2022/12/09 12:07:05;;;;;;;22.63;12.03;;;6.40;69.60;;;;;;5088758;28;20027;-62
2022/12/09 12:09:40;;;;;;;21.73;11.00;;;6.40;69.50;;;;;;5111402;28;20127;-62
2022/12/09 12:12:18;;;;;;;20.87;10.93;;;6.40;69.20;;;;;;5122095;28;20031;-64
2022/12/09 12:14:44;;;;;;;21.77;10.97;;;6.40;69.10;;;;;;5112618;28;20115;-62
2022/12/09 12:17:32;;;;;;;20.70;11.30;;;6.40;69.10;;;;;;5098784;28;20088;-62
2022/12/09 12:19:58;;;;;;;18.10;10.47;;;6.40;68.90;;;;;;5103700;28;20013;-63
2022/12/09 12:22:54;;;;;;;19.90;11.17;;;6.50;68.90;;;;;;5110783;28;20039;-68
2022/12/09 12:25:33;;;;;;;21.27;10.77;;;6.50;68.70;;;;;;5121519;27;20035;-62
2022/12/09 12:28:12;;;;;;;18.83;11.00;;;6.50;68.70;;;;;;5101899;28;20058;-62
2022/12/09 12:31:05;;;;;;;21.07;11.67;;;6.50;68.70;;;;;;5122176;27;20041;-64
2022/12/09 12:33:52;;;;;;;22.13;12.20;;;6.50;68.60;;;;;;5113290;28;20023;-62
2022/12/09 12:36:53;;;;;;;18.57;11.03;;;6.50;68.60;;;;;;5097137;28;20058;-62
2022/12/09 12:39:40;;;;;;;20.77;10.13;;;6.50;68.50;;;;;;5113769;27;20099;-62
2022/12/09 12:42:33;;;;;;;18.77;10.67;;;6.50;68.50;;;;;;5108809;28;20024;-62
2022/12/09 12:48:31;;;;;;;23.83;11.20;;;6.40;68.40;;;;;;5097441;28;20036;-63
2022/12/09 12:51:27;;;;;;;16.30;9.13;;;6.40;68.40;;;;;;5034223;28;20079;-63
2022/12/09 12:54:08;;;;;;;20.87;10.10;;;6.40;68.30;;;;;;5033099;28;20040;-63
2022/12/09 12:56:50;;;;;;;20.30;10.43;;;6.40;68.20;;;;;;5023655;28;20045;-63